createdAt,value
2018-09-27T00:01:54.996Z,4.10
2018-09-27T00:04:24.079Z,2.23
2018-09-27T00:06:53.263Z,5.47
2018-09-27T00:09:22.388Z,3.60
2018-09-27T00:11:51.496Z,3.60
2018-09-27T00:14:20.575Z,5.53
2018-09-27T00:16:49.720Z,6.30
2018-09-27T00:19:18.860Z,3.57
2018-09-27T00:21:47.958Z,2.13
2018-09-27T00:24:17.161Z,4.17
2018-09-27T00:26:46.352Z,4.90
2018-09-27T00:29:15.419Z,4.03
2018-09-27T00:31:44.479Z,5.57
2018-09-27T00:34:13.931Z,5.13
2018-09-27T00:36:43.202Z,4.10
2018-09-27T00:39:13.735Z,4.43
2018-09-27T00:41:43.115Z,3.57
2018-09-27T00:44:12.295Z,3.07
2018-09-27T00:46:41.428Z,4.13
2018-09-27T00:49:10.565Z,2.73
2018-09-27T00:51:41.347Z,2.93
2018-09-27T00:54:10.475Z,4.47
2018-09-27T00:56:39.568Z,2.70
2018-09-27T00:59:08.679Z,2.73
2018-09-27T01:01:37.782Z,2.20
2018-09-27T01:04:07.367Z,4.63
2018-09-27T01:06:36.575Z,3.03
2018-09-27T01:09:08.251Z,2.33
2018-09-27T01:11:37.403Z,2.87
2018-09-27T01:14:06.515Z,2.73
2018-09-27T01:16:35.635Z,3.33
2018-09-27T01:19:04.764Z,2.87
2018-09-27T01:21:33.916Z,2.73
2018-09-27T01:24:03.068Z,1.83
2018-09-27T01:26:32.195Z,3.50
2018-09-27T01:29:01.351Z,2.53
2018-09-27T01:31:30.626Z,4.33
2018-09-27T01:34:00.094Z,2.47
2018-09-27T01:36:29.213Z,2.10
2018-09-27T01:38:58.695Z,3.10
2018-09-27T01:41:27.842Z,2.57
2018-09-27T01:43:56.945Z,2.10
2018-09-27T01:46:26.087Z,3.03
2018-09-27T01:48:55.182Z,3.80
2018-09-27T01:51:24.317Z,4.10
2018-09-27T01:53:53.404Z,3.97
2018-09-27T01:56:22.515Z,4.43
2018-09-27T01:58:51.766Z,3.80
2018-09-27T02:01:20.911Z,3.10
2018-09-27T02:03:50.111Z,2.87
2018-09-27T02:06:19.435Z,3.10
2018-09-27T02:08:48.592Z,3.20
2018-09-27T02:11:18.008Z,3.60
2018-09-27T02:13:47.103Z,2.27
2018-09-27T02:16:16.159Z,3.87
2018-09-27T02:18:45.284Z,2.80
2018-09-27T02:21:14.355Z,3.33
2018-09-27T02:23:43.439Z,2.13
2018-09-27T02:26:12.623Z,2.17
2018-09-27T02:28:41.802Z,2.67
2018-09-27T02:31:11.012Z,2.20
2018-09-27T02:33:40.177Z,3.83
2018-09-27T02:36:09.291Z,3.90
2018-09-27T02:38:38.471Z,1.83
2018-09-27T02:41:07.645Z,2.27
2018-09-27T02:43:36.828Z,3.33
2018-09-27T02:46:05.974Z,3.83
2018-09-27T02:48:35.122Z,6.20
2018-09-27T02:51:04.209Z,3.53
2018-09-27T02:53:33.349Z,3.40
2018-09-27T02:56:02.545Z,3.50
2018-09-27T02:58:32.034Z,4.70
2018-09-27T03:01:01.143Z,12.30
2018-09-27T03:03:30.325Z,10.43
2018-09-27T03:05:59.436Z,7.93
2018-09-27T03:08:28.555Z,19.33
2018-09-27T03:10:57.677Z,12.10
2018-09-27T03:13:26.744Z,20.93
2018-09-27T03:15:55.848Z,20.13
2018-09-27T03:18:25.012Z,21.10
2018-09-27T03:20:54.201Z,17.60
2018-09-27T03:23:23.677Z,25.40
2018-09-27T03:25:52.955Z,20.53
2018-09-27T03:28:22.327Z,17.53
2018-09-27T03:30:51.436Z,22.13
2018-09-27T03:33:20.512Z,17.97
2018-09-27T03:35:49.649Z,24.77
2018-09-27T03:38:18.823Z,23.57
2018-09-27T03:40:47.924Z,24.13
2018-09-27T03:43:16.995Z,21.83
2018-09-27T03:45:46.195Z,26.20
2018-09-27T03:48:15.304Z,23.87
2018-09-27T03:50:44.496Z,23.57
2018-09-27T03:53:13.629Z,29.67
2018-09-27T03:55:42.824Z,26.77
2018-09-27T03:58:12.124Z,26.27
2018-09-27T04:00:41.195Z,30.30
2018-09-27T04:03:10.323Z,19.23
2018-09-27T04:05:39.668Z,22.30
2018-09-27T04:08:08.934Z,21.20
2018-09-27T04:10:38.136Z,19.37
2018-09-27T04:13:07.289Z,15.13
2018-09-27T04:15:36.329Z,21.70
2018-09-27T04:18:05.667Z,19.43
2018-09-27T04:20:42.998Z,27.83
2018-09-27T04:23:12.089Z,17.80
2018-09-27T04:25:41.253Z,20.87
2018-09-27T04:28:10.355Z,17.03
2018-09-27T04:30:39.492Z,16.63
2018-09-27T04:33:08.582Z,18.90
2018-09-27T04:35:37.902Z,12.80
2018-09-27T04:38:07.245Z,19.27
2018-09-27T04:40:36.347Z,15.17
2018-09-27T04:43:05.804Z,14.53
2018-09-27T04:45:34.948Z,13.60
2018-09-27T04:48:04.099Z,19.77
2018-09-27T04:50:33.366Z,17.07
2018-09-27T04:53:03.137Z,17.30
2018-09-27T04:55:32.509Z,15.40
2018-09-27T04:58:01.842Z,11.70
2018-09-27T05:00:31.052Z,12.63
2018-09-27T05:03:00.185Z,15.07
2018-09-27T05:05:29.438Z,11.30
2018-09-27T05:07:58.609Z,13.57
2018-09-27T05:10:28.289Z,14.90
2018-09-27T05:12:57.475Z,11.37
2018-09-27T05:15:26.558Z,12.30
2018-09-27T05:17:55.836Z,12.57
2018-09-27T05:20:24.995Z,10.37
2018-09-27T05:22:54.276Z,10.90
2018-09-27T05:25:23.447Z,12.47
2018-09-27T05:27:52.558Z,8.93
2018-09-27T05:30:21.645Z,13.93
2018-09-27T05:32:50.745Z,9.23
2018-09-27T05:35:19.868Z,10.27
2018-09-27T05:37:49.049Z,11.63
2018-09-27T05:40:18.196Z,10.27
2018-09-27T05:42:47.589Z,11.50
2018-09-27T05:45:16.802Z,10.63
2018-09-27T05:47:46.124Z,11.00
2018-09-27T05:50:15.336Z,10.60
2018-09-27T05:52:44.440Z,8.23
2018-09-27T05:55:13.507Z,9.50
2018-09-27T05:57:42.615Z,13.63
2018-09-27T06:00:11.899Z,9.80
2018-09-27T06:02:41.094Z,11.33
2018-09-27T06:05:10.176Z,11.87
2018-09-27T06:07:39.252Z,7.87
2018-09-27T06:10:08.399Z,10.57
2018-09-27T06:12:37.526Z,9.63
2018-09-27T06:15:06.596Z,9.03
2018-09-27T06:17:35.762Z,9.03
2018-09-27T06:20:04.876Z,7.27
2018-09-27T06:22:33.976Z,10.63
2018-09-27T06:25:03.090Z,7.63
2018-09-27T06:27:32.198Z,9.60
2018-09-27T06:30:01.443Z,10.73
2018-09-27T06:32:30.516Z,6.77
2018-09-27T06:34:59.720Z,7.23
2018-09-27T06:37:29.008Z,7.67
2018-09-27T06:39:58.088Z,6.63
2018-09-27T06:42:27.204Z,7.50
2018-09-27T06:44:56.250Z,8.03
2018-09-27T06:47:25.341Z,7.63
2018-09-27T06:49:54.540Z,6.67
2018-09-27T06:52:23.653Z,7.03
2018-09-27T06:54:52.894Z,6.20
2018-09-27T06:57:22.061Z,5.77
2018-09-27T06:59:51.163Z,10.17
2018-09-27T07:02:20.319Z,7.83
2018-09-27T07:04:49.454Z,10.03
2018-09-27T07:07:18.863Z,9.30
2018-09-27T07:09:48.112Z,8.73
2018-09-27T07:12:17.457Z,7.37
2018-09-27T07:14:46.550Z,6.83
2018-09-27T07:17:15.623Z,4.50
2018-09-27T07:19:44.818Z,8.37
2018-09-27T07:22:13.906Z,5.03
2018-09-27T07:24:43.032Z,7.17
2018-09-27T07:27:12.104Z,7.80
2018-09-27T07:29:41.196Z,10.83
2018-09-27T07:32:10.453Z,7.80
2018-09-27T07:34:39.649Z,5.97
2018-09-27T07:37:08.725Z,8.13
2018-09-27T07:39:37.804Z,6.10
2018-09-27T07:42:06.880Z,6.53
2018-09-27T07:44:36.137Z,5.13
2018-09-27T07:47:05.408Z,7.13
2018-09-27T07:49:34.491Z,7.40
2018-09-27T07:52:03.668Z,5.50
2018-09-27T07:54:38.258Z,8.73
2018-09-27T07:57:07.561Z,7.03
2018-09-27T07:59:36.705Z,5.80
2018-09-27T08:02:05.803Z,6.40
2018-09-27T08:04:35.103Z,4.97
2018-09-27T08:07:04.220Z,9.90
2018-09-27T08:09:33.297Z,5.10
2018-09-27T08:12:02.490Z,4.47
2018-09-27T08:14:31.802Z,5.93
2018-09-27T08:17:01.289Z,5.63
2018-09-27T08:19:30.500Z,5.63
2018-09-27T08:21:59.612Z,6.13
2018-09-27T08:24:28.610Z,6.63
2018-09-27T08:26:57.664Z,4.90
2018-09-27T08:29:26.801Z,5.00
2018-09-27T08:31:55.853Z,6.30
2018-09-27T08:34:24.971Z,7.90
2018-09-27T08:36:54.060Z,6.37
2018-09-27T08:39:23.168Z,7.83
2018-09-27T08:41:52.259Z,7.93
2018-09-27T08:44:21.534Z,6.60
2018-09-27T08:46:50.690Z,7.07
2018-09-27T08:49:19.838Z,7.13
2018-09-27T08:51:48.991Z,7.13
2018-09-27T08:54:18.158Z,7.07
2018-09-27T08:56:47.241Z,6.07
2018-09-27T08:59:16.319Z,6.90
2018-09-27T09:01:45.460Z,5.10
2018-09-27T09:04:14.552Z,3.83
2018-09-27T09:06:43.739Z,5.13
2018-09-27T09:09:13.783Z,5.53
2018-09-27T09:11:42.857Z,5.10
2018-09-27T09:14:12.485Z,4.90
2018-09-27T09:16:41.635Z,6.10
2018-09-27T09:19:10.767Z,4.93
2018-09-27T09:21:39.941Z,6.03
2018-09-27T09:24:09.274Z,6.77
2018-09-27T09:26:38.458Z,5.30
2018-09-27T09:29:07.636Z,5.93
2018-09-27T09:31:36.840Z,4.27
2018-09-27T09:34:06.040Z,4.50
2018-09-27T09:36:35.150Z,6.03
2018-09-27T09:39:05.975Z,4.50
2018-09-27T09:41:35.090Z,4.40
2018-09-27T09:44:04.265Z,5.73
2018-09-27T09:46:33.590Z,4.97
2018-09-27T09:49:02.656Z,7.03
2018-09-27T09:51:31.990Z,4.97
2018-09-27T09:54:01.160Z,4.50
2018-09-27T09:56:30.466Z,4.67
2018-09-27T09:59:00.794Z,4.27
2018-09-27T10:01:29.912Z,3.43
2018-09-27T10:03:59.014Z,6.47
2018-09-27T10:06:28.101Z,4.17
2018-09-27T10:08:57.248Z,3.10
2018-09-27T10:11:26.473Z,4.80
2018-09-27T10:13:55.682Z,5.30
2018-09-27T10:16:24.895Z,3.83
2018-09-27T10:18:53.972Z,5.43
2018-09-27T10:21:23.064Z,5.87
2018-09-27T10:23:52.155Z,4.93
2018-09-27T10:26:21.230Z,3.37
2018-09-27T10:28:50.337Z,6.77
2018-09-27T10:31:19.401Z,4.30
2018-09-27T10:33:48.536Z,3.67
2018-09-27T10:36:17.744Z,4.67
2018-09-27T10:38:46.956Z,2.60
2018-09-27T10:41:16.050Z,4.60
2018-09-27T10:43:45.090Z,3.73
2018-09-27T10:46:14.444Z,3.40
2018-09-27T10:48:43.744Z,6.27
2018-09-27T10:51:13.041Z,4.67
2018-09-27T10:53:42.758Z,4.33
2018-09-27T10:56:11.835Z,4.40
2018-09-27T10:58:40.951Z,4.17
2018-09-27T11:01:10.095Z,4.23
2018-09-27T11:03:39.245Z,5.13
2018-09-27T11:06:08.306Z,4.00
2018-09-27T11:08:37.630Z,3.70
2018-09-27T11:11:07.073Z,5.90
2018-09-27T11:13:36.274Z,3.03
2018-09-27T11:16:05.348Z,3.93
2018-09-27T11:18:34.544Z,5.47
2018-09-27T11:21:03.596Z,4.20
2018-09-27T11:23:32.712Z,3.27
2018-09-27T11:26:01.796Z,3.27
2018-09-27T11:28:36.259Z,2.80
2018-09-27T11:31:10.816Z,3.87
2018-09-27T11:33:39.891Z,4.13
2018-09-27T11:36:08.969Z,3.43
2018-09-27T11:38:38.415Z,3.80
2018-09-27T11:41:07.673Z,3.50
2018-09-27T11:43:36.837Z,7.30
2018-09-27T11:46:05.901Z,3.13
2018-09-27T11:48:34.967Z,3.17
2018-09-27T11:51:04.052Z,7.17
2018-09-27T11:53:33.137Z,3.90
2018-09-27T11:56:02.236Z,3.77
2018-09-27T11:58:31.528Z,4.13
2018-09-27T12:01:00.675Z,4.17
2018-09-27T12:03:29.791Z,4.13
2018-09-27T12:05:58.959Z,4.57
2018-09-27T12:08:28.310Z,3.40
2018-09-27T12:10:57.415Z,3.13
2018-09-27T12:13:26.562Z,3.67
2018-09-27T12:15:55.823Z,5.47
2018-09-27T12:18:24.926Z,4.50
2018-09-27T12:20:54.040Z,7.07
2018-09-27T12:23:23.223Z,4.53
2018-09-27T12:25:52.346Z,2.93
2018-09-27T12:28:21.521Z,4.57
2018-09-27T12:30:50.613Z,5.53
2018-09-27T12:33:19.843Z,3.97
2018-09-27T12:35:48.933Z,6.10
2018-09-27T12:38:18.230Z,5.23
2018-09-27T12:40:47.593Z,6.27
2018-09-27T12:43:16.697Z,3.57
2018-09-27T12:45:45.926Z,3.20
2018-09-27T12:48:15.214Z,2.87
2018-09-27T12:50:44.502Z,3.50
2018-09-27T12:53:14.107Z,3.27
2018-09-27T12:55:43.459Z,4.13
2018-09-27T12:58:12.547Z,3.60
2018-09-27T13:00:41.646Z,2.83
2018-09-27T13:03:10.830Z,3.00
2018-09-27T13:05:39.951Z,3.20
2018-09-27T13:08:09.173Z,3.40
2018-09-27T13:10:38.257Z,3.00
2018-09-27T13:13:07.463Z,3.30
2018-09-27T13:15:36.690Z,3.70
2018-09-27T13:18:05.777Z,3.27
2018-09-27T13:20:34.889Z,4.13
2018-09-27T13:23:04.223Z,3.20
2018-09-27T13:25:33.513Z,2.87
2018-09-27T13:28:02.830Z,4.70
2018-09-27T13:30:32.013Z,3.03
2018-09-27T13:33:01.123Z,3.50
2018-09-27T13:35:30.451Z,2.93
2018-09-27T13:37:59.543Z,5.33
2018-09-27T13:40:28.663Z,3.87
2018-09-27T13:42:57.782Z,3.77
2018-09-27T13:45:27.039Z,3.23
2018-09-27T13:47:56.339Z,3.87
2018-09-27T13:50:25.507Z,5.27
2018-09-27T13:52:54.657Z,2.90
2018-09-27T13:55:23.834Z,4.00
2018-09-27T13:57:53.196Z,6.40
2018-09-27T14:00:22.299Z,7.03
2018-09-27T14:02:51.509Z,5.40
2018-09-27T14:05:20.795Z,9.63
2018-09-27T14:07:50.001Z,10.70
2018-09-27T14:10:19.067Z,12.13
2018-09-27T14:12:48.135Z,7.67
2018-09-27T14:15:17.336Z,12.40
2018-09-27T14:17:46.412Z,10.80
2018-09-27T14:20:15.623Z,9.47
2018-09-27T14:22:44.693Z,11.50
2018-09-27T14:25:14.010Z,11.03
2018-09-27T14:27:43.174Z,9.27
2018-09-27T14:30:12.306Z,12.33
2018-09-27T14:32:41.529Z,11.87
2018-09-27T14:35:10.588Z,13.80
2018-09-27T14:37:39.708Z,14.37
2018-09-27T14:40:08.850Z,12.00
2018-09-27T14:42:38.035Z,12.93
2018-09-27T14:45:07.364Z,10.10
2018-09-27T14:47:36.601Z,10.43
2018-09-27T14:50:06.045Z,15.97
2018-09-27T14:52:35.460Z,10.47
2018-09-27T14:55:04.875Z,15.10
2018-09-27T14:57:34.543Z,14.17
2018-09-27T15:00:03.701Z,9.43
2018-09-27T15:02:32.991Z,12.63
2018-09-27T15:05:02.340Z,11.83
2018-09-27T15:07:31.739Z,14.13
2018-09-27T15:10:01.001Z,13.73
2018-09-27T15:12:30.349Z,13.93
2018-09-27T15:14:59.642Z,10.97
2018-09-27T15:17:28.773Z,12.90
2018-09-27T15:19:57.853Z,12.33
2018-09-27T15:22:27.041Z,13.40
2018-09-27T15:24:56.412Z,11.43
2018-09-27T15:27:25.548Z,10.80
2018-09-27T15:29:54.747Z,10.13
2018-09-27T15:32:23.935Z,8.27
2018-09-27T15:34:53.080Z,13.43
2018-09-27T15:37:22.177Z,10.73
2018-09-27T15:39:51.341Z,7.10
2018-09-27T15:42:20.592Z,12.37
2018-09-27T15:44:49.693Z,11.10
2018-09-27T15:47:18.797Z,10.90
2018-09-27T15:49:48.011Z,7.63
2018-09-27T15:52:17.085Z,11.33
2018-09-27T15:54:46.270Z,11.00
2018-09-27T15:57:15.383Z,15.87
2018-09-27T15:59:44.535Z,8.63
2018-09-27T16:02:13.663Z,12.20
2018-09-27T16:04:42.907Z,10.60
2018-09-27T16:07:12.055Z,6.60
2018-09-27T16:09:41.179Z,8.03
2018-09-27T16:12:10.596Z,8.70
2018-09-27T16:14:39.869Z,6.83
2018-09-27T16:17:09.509Z,8.53
2018-09-27T16:19:38.639Z,6.87
2018-09-27T16:22:07.844Z,10.57
2018-09-27T16:24:37.068Z,8.43
2018-09-27T16:27:06.379Z,7.93
2018-09-27T16:29:35.463Z,6.73
2018-09-27T16:32:04.712Z,8.43
2018-09-27T16:34:34.683Z,9.17
2018-09-27T16:37:04.793Z,10.07
2018-09-27T16:39:33.990Z,7.30
2018-09-27T16:42:03.048Z,7.17
2018-09-27T16:44:32.218Z,5.17
2018-09-27T16:47:01.427Z,6.97
2018-09-27T16:49:30.902Z,6.80
2018-09-27T16:52:00.062Z,7.33
2018-09-27T16:54:29.115Z,8.60
2018-09-27T16:56:58.259Z,12.47
2018-09-27T16:59:27.348Z,9.00
2018-09-27T17:01:56.668Z,8.40
2018-09-27T17:04:25.891Z,7.23
2018-09-27T17:06:54.994Z,9.83
2018-09-27T17:09:24.068Z,8.53
2018-09-27T17:11:53.190Z,6.60
2018-09-27T17:14:22.485Z,8.23
2018-09-27T17:16:51.558Z,8.50
2018-09-27T17:19:20.662Z,10.50
2018-09-27T17:21:49.757Z,10.00
2018-09-27T17:24:18.949Z,7.17
2018-09-27T17:26:48.033Z,9.33
2018-09-27T17:29:17.164Z,6.97
2018-09-27T17:31:46.262Z,6.23
2018-09-27T17:34:15.631Z,7.63
2018-09-27T17:36:44.764Z,7.27
2018-09-27T17:39:13.866Z,6.90
2018-09-27T17:41:42.937Z,12.07
2018-09-27T17:44:12.033Z,10.93
2018-09-27T17:46:41.136Z,5.97
2018-09-27T17:49:10.443Z,5.23
2018-09-27T17:51:39.512Z,5.37
2018-09-27T17:54:08.648Z,11.90
2018-09-27T17:56:37.793Z,6.97
2018-09-27T17:59:06.984Z,7.27
2018-09-27T18:01:36.263Z,5.63
2018-09-27T18:04:05.481Z,8.27
2018-09-27T18:06:34.615Z,4.60
2018-09-27T18:09:08.839Z,5.50
2018-09-27T18:11:38.101Z,5.70
2018-09-27T18:14:07.432Z,8.90
2018-09-27T18:16:36.498Z,6.10
2018-09-27T18:19:06.131Z,5.23
2018-09-27T18:21:35.496Z,6.20
2018-09-27T18:24:04.544Z,5.07
2018-09-27T18:26:33.690Z,3.73
2018-09-27T18:29:02.768Z,6.70
2018-09-27T18:31:31.959Z,8.43
2018-09-27T18:34:01.232Z,7.23
2018-09-27T18:36:30.752Z,5.73
2018-09-27T18:39:00.050Z,6.03
2018-09-27T18:41:29.080Z,6.10
2018-09-27T18:43:58.206Z,5.00
2018-09-27T18:46:27.323Z,7.80
2018-09-27T18:48:56.435Z,4.90
2018-09-27T18:51:25.702Z,6.90
2018-09-27T18:53:54.895Z,2.97
2018-09-27T18:56:24.172Z,4.87
2018-09-27T18:58:53.296Z,4.47
2018-09-27T19:01:22.396Z,6.43
2018-09-27T19:03:51.453Z,4.97
2018-09-27T19:06:20.617Z,6.50
2018-09-27T19:08:49.796Z,4.17
2018-09-27T19:11:18.976Z,5.93
2018-09-27T19:13:48.046Z,5.80
2018-09-27T19:16:17.196Z,7.73
2018-09-27T19:18:46.284Z,4.67
2018-09-27T19:21:15.347Z,3.67
2018-09-27T19:23:44.478Z,4.37
2018-09-27T19:26:13.772Z,3.73
2018-09-27T19:28:42.876Z,3.27
2018-09-27T19:31:11.939Z,4.90
2018-09-27T19:33:41.013Z,5.07
2018-09-27T19:36:10.171Z,5.63
2018-09-27T19:38:39.275Z,4.27
2018-09-27T19:41:08.441Z,5.07
2018-09-27T19:43:37.520Z,4.50
2018-09-27T19:46:06.640Z,5.50
2018-09-27T19:48:36.759Z,5.40
2018-09-27T19:51:06.069Z,5.33
2018-09-27T19:53:35.197Z,6.10
2018-09-27T19:56:04.361Z,3.83
2018-09-27T19:58:33.717Z,3.97
2018-09-27T20:01:03.179Z,4.23
2018-09-27T20:03:32.252Z,4.87
2018-09-27T20:06:01.352Z,3.73
2018-09-27T20:08:30.655Z,4.23
2018-09-27T20:10:59.856Z,4.57
2018-09-27T20:13:28.990Z,4.63
2018-09-27T20:15:58.139Z,4.37
2018-09-27T20:18:27.426Z,3.73
2018-09-27T20:20:56.514Z,4.20
2018-09-27T20:23:25.771Z,3.47
2018-09-27T20:25:54.900Z,6.50
2018-09-27T20:28:24.144Z,3.57
2018-09-27T20:30:53.415Z,8.27
2018-09-27T20:33:22.551Z,4.67
2018-09-27T20:35:51.890Z,3.93
2018-09-27T20:38:20.973Z,3.43
2018-09-27T20:40:50.124Z,3.87
2018-09-27T20:43:19.188Z,4.67
2018-09-27T20:45:48.311Z,5.47
2018-09-27T20:48:17.370Z,4.13
2018-09-27T20:50:46.524Z,3.57
2018-09-27T20:53:15.588Z,4.77
2018-09-27T20:55:44.688Z,5.83
2018-09-27T20:58:13.793Z,5.30
2018-09-27T21:00:44.904Z,5.77
2018-09-27T21:03:13.980Z,5.33
2018-09-27T21:05:43.238Z,4.90
2018-09-27T21:08:12.304Z,3.80
2018-09-27T21:10:41.636Z,5.10
2018-09-27T21:13:10.719Z,4.10
2018-09-27T21:15:39.833Z,4.43
2018-09-27T21:18:08.910Z,5.50
2018-09-27T21:20:38.022Z,5.10
2018-09-27T21:23:07.216Z,4.03
2018-09-27T21:25:36.283Z,2.83
2018-09-27T21:28:05.403Z,5.80
2018-09-27T21:30:34.513Z,3.77
2018-09-27T21:33:03.610Z,4.43
2018-09-27T21:35:32.751Z,5.50
2018-09-27T21:38:01.807Z,3.97
2018-09-27T21:40:31.006Z,8.40
2018-09-27T21:43:00.111Z,4.27
2018-09-27T21:45:29.198Z,3.03
2018-09-27T21:47:58.394Z,5.03
2018-09-27T21:50:27.566Z,3.53
2018-09-27T21:52:56.798Z,5.17
2018-09-27T21:55:25.863Z,3.07
2018-09-27T21:57:54.963Z,4.77
2018-09-27T22:00:24.398Z,6.10
2018-09-27T22:02:53.459Z,4.63
2018-09-27T22:05:22.552Z,5.57
2018-09-27T22:07:51.657Z,3.63
2018-09-27T22:10:20.719Z,3.83
2018-09-27T22:12:49.851Z,3.67
2018-09-27T22:15:18.953Z,5.20
2018-09-27T22:17:48.171Z,6.37
2018-09-27T22:20:17.314Z,3.80
2018-09-27T22:22:46.671Z,3.03
2018-09-27T22:25:15.813Z,5.30
2018-09-27T22:27:44.946Z,5.20
2018-09-27T22:30:14.148Z,3.43
2018-09-27T22:32:43.327Z,4.07
2018-09-27T22:35:12.405Z,4.03
2018-09-27T22:37:41.586Z,3.07
2018-09-27T22:40:10.940Z,3.40
2018-09-27T22:42:40.133Z,4.83
2018-09-27T22:45:09.281Z,3.20
2018-09-27T22:47:38.399Z,3.33
2018-09-27T22:50:07.522Z,4.10
2018-09-27T22:52:36.623Z,4.03
2018-09-27T22:55:05.737Z,3.20
2018-09-27T22:57:35.108Z,3.40
2018-09-27T23:00:04.233Z,4.97
2018-09-27T23:02:33.292Z,3.20
2018-09-27T23:05:02.399Z,2.87
2018-09-27T23:07:31.475Z,3.90
2018-09-27T23:10:00.622Z,4.87
2018-09-27T23:12:29.767Z,3.97
2018-09-27T23:14:58.831Z,3.53
2018-09-27T23:17:28.317Z,3.43
2018-09-27T23:19:57.490Z,2.67
2018-09-27T23:22:26.543Z,5.90
2018-09-27T23:24:55.683Z,5.67
2018-09-27T23:27:24.905Z,4.77
2018-09-27T23:29:54.105Z,2.43
2018-09-27T23:32:23.269Z,3.63
2018-09-27T23:34:52.315Z,3.73
2018-09-27T23:37:21.453Z,5.47
2018-09-27T23:39:50.674Z,4.47
2018-09-27T23:42:20.179Z,4.57
2018-09-27T23:44:49.603Z,3.47
2018-09-27T23:47:18.675Z,4.00
2018-09-27T23:49:47.767Z,3.30
2018-09-27T23:52:16.935Z,3.43
2018-09-27T23:54:46.035Z,2.67
2018-09-27T23:57:15.152Z,3.00
2018-09-27T23:59:44.235Z,3.97
